Time;durP1;ratioP1;P1;durP2;ratioP2;P2;SDS_P1;SDS_P2;PMS_P1;PMS_P2;Temp;Humidity;BMP_temperature;BMP_pressure;BME280_temperature;BME280_humidity;BME280_pressure;Samples;Min_cycle;Max_cycle;Signal;HPM_P1;HPM_P2
2024/02/26 00:01:39;;;;;;;;;;;;;;;6.33;88.63;95545.57;107044;1297;24174;-84
2024/02/26 00:04:05;;;;;;;;;;;;;;;6.35;88.16;95543.95;107066;1298;22572;-84
2024/02/26 00:06:32;;;;;;;;;;;;;;;6.40;88.27;95543.61;107055;1300;25297;-84
2024/02/26 00:08:59;;;;;;;;;;;;;;;6.41;88.01;95543.36;107203;1292;22534;-84
2024/02/26 00:11:25;;;;;;;;;;;;;;;6.44;88.01;95546.77;106878;1294;23273;-84
2024/02/26 00:13:52;;;;;;;;;;;;;;;6.35;87.63;95537.79;107037;1301;22528;-84
2024/02/26 00:16:18;;;;;;;;;;;;;;;6.26;87.51;95535.48;107059;1300;23174;-84
2024/02/26 00:18:44;;;;;;;;;;;;;;;6.20;87.69;95533.31;106912;1301;22577;-84
2024/02/26 00:21:11;;;;;;;;;;;;;;;6.12;88.00;95535.09;107085;1300;22546;-84
2024/02/26 00:23:38;;;;;;;;;;;;;;;6.13;87.98;95532.52;107036;1283;22550;-85
2024/02/26 00:26:04;;;;;;;;;;;;;;;6.15;87.73;95532.19;107107;1299;22607;-84
2024/02/26 00:28:31;;;;;;;;;;;;;;;6.21;87.70;95534.61;107139;1300;22538;-84
2024/02/26 00:30:57;;;;;;;;;;;;;;;6.20;87.90;95530.90;107157;1300;22570;-84
2024/02/26 00:33:25;;;;;;;;;;;;;;;6.10;87.53;95526.05;107206;1300;22571;-84
2024/02/26 00:35:52;;;;;;;;;;;;;;;6.05;87.88;95533.16;107162;1292;22720;-84
2024/02/26 00:38:18;;;;;;;;;;;;;;;5.97;87.77;95531.20;107057;1300;25473;-84
2024/02/26 00:40:45;;;;;;;;;;;;;;;5.92;87.92;95532.36;107151;1292;22530;-84
2024/02/26 00:43:11;;;;;;;;;;;;;;;5.88;87.76;95533.11;106787;1284;22566;-85
2024/02/26 00:45:37;;;;;;;;;;;;;;;5.82;87.86;95531.59;107138;1300;22555;-84
2024/02/26 00:48:05;;;;;;;;;;;;;;;5.77;88.18;95526.08;107115;1300;22499;-84
2024/02/26 00:50:31;;;;;;;;;;;;;;;5.72;87.88;95528.58;107146;1300;25269;-85
2024/02/26 00:52:58;;;;;;;;;;;;;;;5.74;88.40;95526.27;107144;1300;22532;-85
2024/02/26 00:55:24;;;;;;;;;;;;;;;5.72;88.49;95525.52;107179;1300;23182;-85
2024/02/26 00:57:50;;;;;;;;;;;;;;;5.63;88.61;95525.52;106903;1301;22560;-85
2024/02/26 01:00:17;;;;;;;;;;;;;;;5.60;88.69;95521.30;106964;1300;22524;-85
2024/02/26 01:02:46;;;;;;;;;;;;;;;5.64;88.91;95521.56;106947;1295;22568;-85
2024/02/26 01:05:13;;;;;;;;;;;;;;;5.64;88.82;95524.30;107208;1300;22520;-85
2024/02/26 01:07:40;;;;;;;;;;;;;;;5.60;88.90;95527.49;107128;1300;22595;-85
2024/02/26 01:10:06;;;;;;;;;;;;;;;5.58;88.81;95526.67;107127;1285;25425;-85
2024/02/26 01:12:34;;;;;;;;;;;;;;;5.56;88.57;95527.95;107076;1298;22543;-85
2024/02/26 01:15:01;;;;;;;;;;;;;;;5.56;88.97;95528.82;107134;1300;22603;-85
2024/02/26 01:17:27;;;;;;;;;;;;;;;5.55;89.17;95527.64;107094;1300;25433;-85
2024/02/26 01:19:54;;;;;;;;;;;;;;;5.52;89.14;95528.09;107126;1285;22542;-85
2024/02/26 01:22:20;;;;;;;;;;;;;;;5.46;89.40;95525.65;107119;1279;22851;-85
2024/02/26 01:24:47;;;;;;;;;;;;;;;5.38;89.36;95528.27;107166;1300;22565;-85
2024/02/26 01:27:15;;;;;;;;;;;;;;;5.31;89.61;95530.37;106902;1295;22941;-85
2024/02/26 01:29:42;;;;;;;;;;;;;;;5.22;89.58;95529.85;107257;1300;23201;-85
2024/02/26 01:32:08;;;;;;;;;;;;;;;5.14;89.48;95530.37;106903;1301;25255;-85
2024/02/26 01:34:36;;;;;;;;;;;;;;;5.20;89.76;95532.20;107191;1300;23330;-85
2024/02/26 01:37:03;;;;;;;;;;;;;;;5.23;90.17;95528.53;107173;1293;22527;-85
2024/02/26 01:39:30;;;;;;;;;;;;;;;5.20;90.37;95533.14;107060;1295;23873;-85
2024/02/26 01:41:56;;;;;;;;;;;;;;;5.14;90.15;95529.76;106816;1297;23400;-85
2024/02/26 01:44:23;;;;;;;;;;;;;;;5.13;90.30;95526.27;106891;1292;22537;-85
2024/02/26 01:46:49;;;;;;;;;;;;;;;5.24;90.40;95521.41;107049;1300;22526;-85
2024/02/26 01:49:16;;;;;;;;;;;;;;;5.34;90.60;95515.24;107130;1297;22602;-86
2024/02/26 01:51:42;;;;;;;;;;;;;;;5.39;90.28;95515.11;107211;1294;24189;-85
2024/02/26 01:54:08;;;;;;;;;;;;;;;5.52;90.16;95516.63;106989;1300;22539;-85
2024/02/26 01:56:35;;;;;;;;;;;;;;;5.62;89.83;95514.40;106998;1300;22529;-85
2024/02/26 01:59:01;;;;;;;;;;;;;;;5.75;89.51;95514.38;107120;1300;22581;-86
2024/02/26 02:01:28;;;;;;;;;;;;;;;5.85;88.97;95519.33;107098;1300;23905;-86
2024/02/26 02:03:58;;;;;;;;;;;;;;;5.93;88.74;95514.04;106947;1300;22562;-84
2024/02/26 02:06:24;;;;;;;;;;;;;;;5.98;88.10;95515.27;107166;1300;22532;-84
2024/02/26 02:08:51;;;;;;;;;;;;;;;6.00;87.91;95519.86;107084;1301;22525;-84
2024/02/26 02:11:17;;;;;;;;;;;;;;;6.01;88.11;95518.80;106904;1300;22543;-84
2024/02/26 02:13:44;;;;;;;;;;;;;;;5.90;87.99;95518.23;106928;1301;25303;-84
2024/02/26 02:16:11;;;;;;;;;;;;;;;5.81;87.53;95514.32;106967;1300;24260;-85
2024/02/26 02:18:37;;;;;;;;;;;;;;;5.72;87.48;95512.08;107129;1300;22588;-84
2024/02/26 02:21:03;;;;;;;;;;;;;;;5.57;88.02;95516.86;107111;1291;22581;-85
2024/02/26 02:23:30;;;;;;;;;;;;;;;5.41;87.93;95519.83;107052;1300;22523;-84
2024/02/26 02:25:57;;;;;;;;;;;;;;;5.30;88.34;95516.80;107095;1298;22561;-85
2024/02/26 02:28:23;;;;;;;;;;;;;;;5.26;88.48;95514.54;107146;1300;22559;-84
2024/02/26 02:30:50;;;;;;;;;;;;;;;5.32;89.25;95514.14;106960;1294;22559;-84
2024/02/26 02:33:17;;;;;;;;;;;;;;;5.46;89.02;95514.71;107120;1282;23238;-84
2024/02/26 02:35:44;;;;;;;;;;;;;;;5.63;88.78;95507.20;107162;1292;22542;-84
2024/02/26 02:38:10;;;;;;;;;;;;;;;5.76;88.54;95507.35;107146;1282;22556;-84
2024/02/26 02:40:36;;;;;;;;;;;;;;;5.83;87.89;95508.02;106988;1296;22566;-84
2024/02/26 02:43:04;;;;;;;;;;;;;;;5.91;87.94;95513.24;107044;1300;22553;-84
2024/02/26 02:45:30;;;;;;;;;;;;;;;5.91;87.55;95519.73;107070;1300;22667;-84
2024/02/26 02:47:57;;;;;;;;;;;;;;;5.87;87.29;95514.88;107083;1300;22569;-84
2024/02/26 02:50:24;;;;;;;;;;;;;;;5.80;87.19;95509.08;107088;1292;24816;-84
2024/02/26 02:52:50;;;;;;;;;;;;;;;5.87;87.72;95516.26;107039;1294;22543;-84
2024/02/26 02:55:16;;;;;;;;;;;;;;;5.93;87.76;95513.55;106955;1292;22633;-85
2024/02/26 02:57:44;;;;;;;;;;;;;;;6.05;87.51;95511.09;106881;1301;22557;-85
2024/02/26 03:00:11;;;;;;;;;;;;;;;6.15;87.27;95508.74;106948;1300;25434;-84
2024/02/26 03:02:37;;;;;;;;;;;;;;;6.22;86.97;95500.89;106916;1294;22572;-88
2024/02/26 03:05:04;;;;;;;;;;;;;;;6.30;86.82;95496.19;106986;1300;22608;-88
2024/02/26 03:07:31;;;;;;;;;;;;;;;6.33;86.53;95495.83;107125;1295;22649;-88
2024/02/26 03:09:57;;;;;;;;;;;;;;;6.37;86.06;95492.14;106974;1294;23376;-88
2024/02/26 03:12:24;;;;;;;;;;;;;;;6.42;85.78;95486.59;107110;1294;22484;-88
2024/02/26 03:14:51;;;;;;;;;;;;;;;6.44;86.10;95487.02;107234;1293;22553;-88
2024/02/26 03:17:17;;;;;;;;;;;;;;;6.43;85.70;95485.58;107250;1294;25426;-88
2024/02/26 03:19:46;;;;;;;;;;;;;;;6.43;85.84;95488.36;107157;1300;25400;-88
2024/02/26 03:22:13;;;;;;;;;;;;;;;6.41;85.67;95489.73;106957;1300;24559;-88
2024/02/26 03:24:39;;;;;;;;;;;;;;;6.42;85.45;95483.75;107039;1295;22554;-88
2024/02/26 03:27:09;;;;;;;;;;;;;;;6.47;85.05;95481.66;106896;1294;22575;-88
2024/02/26 03:29:35;;;;;;;;;;;;;;;6.46;85.21;95476.05;107045;1300;23317;-87
2024/02/26 03:32:02;;;;;;;;;;;;;;;6.45;84.88;95470.48;107266;1288;22544;-87
2024/02/26 03:34:30;;;;;;;;;;;;;;;6.46;84.84;95469.19;107226;1294;22534;-88
2024/02/26 03:36:56;;;;;;;;;;;;;;;6.48;84.89;95465.35;107670;1294;22848;-88
2024/02/26 03:39:23;;;;;;;;;;;;;;;6.51;84.85;95461.95;107084;1295;22594;-88
2024/02/26 03:41:49;;;;;;;;;;;;;;;6.53;84.41;95460.96;106978;1300;22545;-88
2024/02/26 03:44:16;;;;;;;;;;;;;;;6.54;84.25;95457.77;107077;1301;23416;-88
2024/02/26 03:46:42;;;;;;;;;;;;;;;6.56;84.16;95461.19;107193;1300;22581;-88
2024/02/26 03:49:09;;;;;;;;;;;;;;;6.59;84.47;95464.88;106926;1301;22526;-88
2024/02/26 03:51:35;;;;;;;;;;;;;;;6.64;84.05;95463.94;106960;1300;22685;-87
2024/02/26 03:54:02;;;;;;;;;;;;;;;6.68;84.09;95455.31;107109;1301;22540;-88
2024/02/26 03:56:29;;;;;;;;;;;;;;;6.72;84.66;95452.92;107087;1300;22547;-89
2024/02/26 03:58:55;;;;;;;;;;;;;;;6.75;84.81;95449.73;106993;1294;22661;-89
2024/02/26 04:01:22;;;;;;;;;;;;;;;6.77;84.80;95447.30;107048;1294;24356;-90
2024/02/26 04:03:48;;;;;;;;;;;;;;;6.79;84.88;95441.76;107054;1295;22593;-88
2024/02/26 04:06:15;;;;;;;;;;;;;;;6.82;84.68;95437.59;107083;1301;22548;-88
2024/02/26 04:08:41;;;;;;;;;;;;;;;6.85;84.93;95437.37;107094;1295;22578;-88
2024/02/26 04:11:07;;;;;;;;;;;;;;;6.87;84.67;95431.55;107080;1295;23785;-88
2024/02/26 04:13:34;;;;;;;;;;;;;;;6.89;84.58;95435.38;107147;1300;22849;-88
2024/02/26 04:16:03;;;;;;;;;;;;;;;6.91;84.34;95433.48;107005;1300;24204;-88
2024/02/26 04:18:30;;;;;;;;;;;;;;;6.91;84.43;95423.20;106860;1300;24410;-88
2024/02/26 04:20:56;;;;;;;;;;;;;;;6.91;84.37;95420.49;106980;1294;24211;-87
2024/02/26 04:23:23;;;;;;;;;;;;;;;6.92;84.30;95418.71;106890;1297;22659;-88
2024/02/26 04:25:49;;;;;;;;;;;;;;;6.92;84.49;95417.13;106976;1289;22530;-87
2024/02/26 04:28:16;;;;;;;;;;;;;;;6.93;84.46;95414.04;107037;1283;23974;-88
2024/02/26 04:30:42;;;;;;;;;;;;;;;6.94;84.21;95412.30;106953;1294;22612;-88
2024/02/26 04:33:09;;;;;;;;;;;;;;;6.95;84.00;95404.95;107091;1295;22749;-88
2024/02/26 04:35:36;;;;;;;;;;;;;;;6.96;84.32;95398.56;107033;1295;22579;-88
2024/02/26 04:38:03;;;;;;;;;;;;;;;7.02;84.33;95397.77;107159;1300;24312;-87
2024/02/26 04:40:29;;;;;;;;;;;;;;;7.08;84.32;95384.95;106942;1300;22537;-89
2024/02/26 04:42:55;;;;;;;;;;;;;;;7.14;83.91;95387.98;107214;1292;22554;-88
2024/02/26 04:45:22;;;;;;;;;;;;;;;7.15;83.65;95388.06;107166;1300;22579;-88
2024/02/26 04:47:48;;;;;;;;;;;;;;;7.16;83.51;95382.02;106933;1300;25571;-88
2024/02/26 04:50:15;;;;;;;;;;;;;;;7.19;83.55;95384.30;106997;1300;22619;-88
2024/02/26 04:52:41;;;;;;;;;;;;;;;7.17;83.26;95384.64;107095;1300;22592;-88
2024/02/26 04:55:08;;;;;;;;;;;;;;;7.25;82.95;95383.75;107194;1295;25444;-88
2024/02/26 04:57:34;;;;;;;;;;;;;;;7.34;82.77;95381.57;107247;1300;22531;-88
2024/02/26 05:00:01;;;;;;;;;;;;;;;7.42;82.56;95386.36;107214;1292;23024;-88
2024/02/26 05:02:30;;;;;;;;;;;;;;;7.49;82.77;95383.38;107073;1300;22536;-87
2024/02/26 05:04:56;;;;;;;;;;;;;;;7.50;82.95;95380.45;107208;1300;22566;-88
2024/02/26 05:07:23;;;;;;;;;;;;;;;7.49;82.64;95382.54;107118;1295;22548;-88
2024/02/26 05:09:52;;;;;;;;;;;;;;;7.50;82.76;95383.59;106986;1300;22559;-87
2024/02/26 05:12:18;;;;;;;;;;;;;;;7.55;82.65;95376.81;106915;1301;22548;-88
2024/02/26 05:14:45;;;;;;;;;;;;;;;7.61;82.73;95377.80;107082;1300;22644;-88
2024/02/26 05:17:12;;;;;;;;;;;;;;;7.66;82.61;95372.48;107169;1300;22520;-88
2024/02/26 05:19:38;;;;;;;;;;;;;;;7.71;82.42;95375.05;107257;1295;22605;-88
2024/02/26 05:22:04;;;;;;;;;;;;;;;7.72;82.35;95376.59;107074;1300;22582;-88
2024/02/26 05:24:31;;;;;;;;;;;;;;;7.74;82.50;95375.36;106981;1300;22554;-87
2024/02/26 05:26:57;;;;;;;;;;;;;;;7.74;82.51;95385.63;106994;1300;22870;-89
2024/02/26 05:29:24;;;;;;;;;;;;;;;7.76;82.62;95381.05;107193;1300;23779;-87
2024/02/26 05:31:50;;;;;;;;;;;;;;;7.78;82.72;95385.52;107131;1300;22552;-87
2024/02/26 05:34:18;;;;;;;;;;;;;;;7.76;82.79;95392.09;106928;1295;22577;-87
2024/02/26 05:36:44;;;;;;;;;;;;;;;7.77;83.06;95388.83;106947;1301;23452;-88
2024/02/26 05:39:11;;;;;;;;;;;;;;;7.79;83.31;95399.14;107027;1294;22548;-87
2024/02/26 05:41:38;;;;;;;;;;;;;;;7.83;83.30;95393.18;107194;1295;25641;-87
2024/02/26 05:44:05;;;;;;;;;;;;;;;7.87;83.53;95396.14;107195;1300;22563;-87
2024/02/26 05:46:31;;;;;;;;;;;;;;;7.87;83.62;95395.27;107173;1298;22568;-87
2024/02/26 05:48:58;;;;;;;;;;;;;;;7.84;83.73;95397.71;107023;1295;22555;-88
2024/02/26 05:51:24;;;;;;;;;;;;;;;7.87;83.89;95397.14;106947;1299;22533;-88
2024/02/26 05:53:53;;;;;;;;;;;;;;;7.91;84.10;95397.15;107079;1292;22534;-87
2024/02/26 05:56:22;;;;;;;;;;;;;;;7.92;84.14;95392.02;106965;1292;22499;-87
2024/02/26 05:58:49;;;;;;;;;;;;;;;7.90;84.30;95395.40;107120;1290;22540;-88
2024/02/26 06:01:16;;;;;;;;;;;;;;;7.91;84.33;95391.46;107100;1300;24377;-87
2024/02/26 06:03:43;;;;;;;;;;;;;;;7.90;84.60;95395.05;106841;1297;25407;-87
2024/02/26 06:06:10;;;;;;;;;;;;;;;7.87;84.59;95392.05;107081;1300;22538;-87
2024/02/26 06:08:36;;;;;;;;;;;;;;;7.85;85.01;95391.05;106972;1292;22592;-88
2024/02/26 06:11:06;;;;;;;;;;;;;;;7.82;84.90;95386.92;107191;1293;22579;-88
2024/02/26 06:13:34;;;;;;;;;;;;;;;7.84;84.74;95394.30;107124;1292;23255;-88
2024/02/26 06:16:00;;;;;;;;;;;;;;;7.83;84.79;95402.52;107016;1300;23186;-87
2024/02/26 06:18:26;;;;;;;;;;;;;;;7.63;84.51;95396.96;107141;1292;22544;-88
2024/02/26 06:20:53;;;;;;;;;;;;;;;7.35;84.59;95416.80;107213;1293;22565;-87
2024/02/26 06:23:20;;;;;;;;;;;;;;;7.21;85.38;95420.88;106824;1300;22568;-88
2024/02/26 06:25:47;;;;;;;;;;;;;;;7.15;85.85;95426.90;107094;1300;25407;-88
2024/02/26 06:28:14;;;;;;;;;;;;;;;7.07;86.31;95423.92;107220;1295;22554;-88
2024/02/26 06:30:41;;;;;;;;;;;;;;;7.05;86.34;95431.30;107017;1300;25496;-88
2024/02/26 06:33:07;;;;;;;;;;;;;;;7.06;86.82;95431.70;107102;1300;22689;-88
2024/02/26 06:35:37;;;;;;;;;;;;;;;7.10;86.98;95435.95;107106;1300;22559;-87
2024/02/26 06:38:04;;;;;;;;;;;;;;;7.17;87.36;95438.09;107146;1300;22530;-87
2024/02/26 06:40:30;;;;;;;;;;;;;;;7.28;87.75;95438.27;107048;1300;22527;-87
2024/02/26 06:42:57;;;;;;;;;;;;;;;7.35;87.79;95440.98;107140;1300;22591;-87
2024/02/26 06:45:23;;;;;;;;;;;;;;;7.39;88.05;95438.55;106949;1300;22554;-86
2024/02/26 06:47:50;;;;;;;;;;;;;;;7.45;87.97;95437.95;106925;1298;23654;-87
2024/02/26 06:50:16;;;;;;;;;;;;;;;7.46;87.56;95437.61;107033;1300;22623;-87
2024/02/26 06:52:44;;;;;;;;;;;;;;;7.44;86.67;95438.40;106975;1300;22577;-87
2024/02/26 06:55:10;;;;;;;;;;;;;;;7.40;86.61;95440.46;106938;1288;22643;-87
2024/02/26 06:57:37;;;;;;;;;;;;;;;7.32;87.09;95447.63;107218;1295;23584;-87
2024/02/26 07:00:04;;;;;;;;;;;;;;;7.29;87.17;95456.52;107069;1291;22542;-87
2024/02/26 07:02:30;;;;;;;;;;;;;;;7.27;87.07;95459.48;107080;1300;22672;-88
2024/02/26 07:04:58;;;;;;;;;;;;;;;7.26;87.20;95457.66;107151;1300;22531;-88
2024/02/26 07:07:24;;;;;;;;;;;;;;;7.22;88.60;95456.43;107168;1300;24307;-88
2024/02/26 07:09:51;;;;;;;;;;;;;;;7.17;89.06;95461.70;107185;1292;24201;-86
2024/02/26 07:12:19;;;;;;;;;;;;;;;7.15;90.04;95465.34;107090;1295;22559;-88
2024/02/26 07:14:45;;;;;;;;;;;;;;;7.14;89.72;95467.70;107087;1300;22523;-88
2024/02/26 07:17:12;;;;;;;;;;;;;;;7.18;89.52;95467.41;107174;1294;22540;-88
2024/02/26 07:19:39;;;;;;;;;;;;;;;7.25;89.26;95464.01;106840;1297;22556;-88
2024/02/26 07:22:05;;;;;;;;;;;;;;;7.30;90.18;95460.43;107059;1297;22523;-88
2024/02/26 07:24:32;;;;;;;;;;;;;;;7.34;89.72;95460.40;107021;1300;22866;-88
2024/02/26 07:26:59;;;;;;;;;;;;;;;7.37;90.33;95467.36;107066;1295;22530;-88
2024/02/26 07:29:25;;;;;;;;;;;;;;;7.41;90.32;95466.12;107037;1300;23056;-88
2024/02/26 07:31:52;;;;;;;;;;;;;;;7.42;91.08;95466.24;107092;1298;22558;-88
2024/02/26 07:34:19;;;;;;;;;;;;;;;7.43;90.96;95470.23;107164;1285;22579;-88
2024/02/26 07:36:46;;;;;;;;;;;;;;;7.48;90.58;95470.71;107171;1300;22527;-88
2024/02/26 07:39:12;;;;;;;;;;;;;;;7.49;91.32;95470.06;106883;1301;24461;-88
2024/02/26 07:41:39;;;;;;;;;;;;;;;7.50;92.02;95470.52;107196;1300;22558;-88
2024/02/26 07:44:05;;;;;;;;;;;;;;;7.50;92.19;95468.85;106898;1300;22531;-88
2024/02/26 07:46:32;;;;;;;;;;;;;;;7.52;92.28;95466.39;107101;1295;24235;-88
2024/02/26 07:48:58;;;;;;;;;;;;;;;7.54;93.00;95466.20;106970;1294;25064;-88
2024/02/26 07:51:24;;;;;;;;;;;;;;;7.56;93.04;95465.91;107052;1295;22556;-88
2024/02/26 07:53:52;;;;;;;;;;;;;;;7.60;92.74;95465.17;106920;1300;22518;-87
2024/02/26 07:56:19;;;;;;;;;;;;;;;7.65;91.68;95462.41;107134;1295;23799;-88
2024/02/26 07:58:45;;;;;;;;;;;;;;;7.72;93.13;95461.11;107128;1301;22555;-88
2024/02/26 08:01:15;;;;;;;;;;;;;;;7.73;93.84;95463.15;107157;1300;22513;-88
2024/02/26 08:03:41;;;;;;;;;;;;;;;7.79;94.22;95467.58;106974;1300;23430;-88
2024/02/26 08:06:08;;;;;;;;;;;;;;;7.84;93.21;95464.77;107117;1301;25424;-87
2024/02/26 08:08:34;;;;;;;;;;;;;;;7.91;92.94;95454.42;106985;1300;22538;-88
2024/02/26 08:11:00;;;;;;;;;;;;;;;7.98;93.85;95464.59;107021;1295;23238;-88
2024/02/26 08:13:27;;;;;;;;;;;;;;;8.03;92.65;95458.11;106792;1301;22542;-88
2024/02/26 08:15:53;;;;;;;;;;;;;;;8.08;91.74;95468.35;107029;1300;22568;-87
2024/02/26 08:18:20;;;;;;;;;;;;;;;8.15;91.75;95469.41;107001;1300;25233;-88
2024/02/26 08:20:48;;;;;;;;;;;;;;;8.24;92.35;95475.23;107156;1295;22595;-88
2024/02/26 08:23:15;;;;;;;;;;;;;;;8.32;91.97;95477.86;106962;1297;22545;-88
2024/02/26 08:25:41;;;;;;;;;;;;;;;8.42;91.13;95482.11;107125;1300;22752;-86
2024/02/26 08:28:08;;;;;;;;;;;;;;;8.53;90.62;95481.34;106984;1294;22949;-88
2024/02/26 08:30:35;;;;;;;;;;;;;;;8.61;90.94;95485.81;107094;1294;24228;-87
2024/02/26 08:33:01;;;;;;;;;;;;;;;8.71;91.49;95485.63;107062;1297;22597;-88
2024/02/26 08:35:28;;;;;;;;;;;;;;;8.81;90.90;95489.30;106848;1301;24215;-87
2024/02/26 08:37:54;;;;;;;;;;;;;;;8.92;90.40;95486.44;106987;1295;22487;-88
2024/02/26 08:40:21;;;;;;;;;;;;;;;9.02;90.65;95484.26;107085;1300;22536;-88
2024/02/26 08:42:48;;;;;;;;;;;;;;;9.15;90.79;95484.22;106869;1295;23342;-88
2024/02/26 08:45:15;;;;;;;;;;;;;;;9.28;90.98;95480.98;107046;1295;22569;-87
2024/02/26 08:47:41;;;;;;;;;;;;;;;9.41;90.45;95485.17;107029;1300;23287;-88
2024/02/26 08:50:09;;;;;;;;;;;;;;;9.53;89.13;95479.77;107025;1300;22552;-88
2024/02/26 08:52:36;;;;;;;;;;;;;;;9.65;88.93;95480.71;108338;1293;22467;-89
2024/02/26 08:55:03;;;;;;;;;;;;;;;9.79;89.08;95478.89;108231;1294;22441;-90
2024/02/26 08:57:29;;;;;;;;;;;;;;;9.96;88.85;95479.86;108409;1300;22419;-88
2024/02/26 08:59:56;;;;;;;;;;;;;;;10.08;89.05;95485.48;108208;1300;22462;-88
2024/02/26 09:02:22;;;;;;;;;;;;;;;10.18;87.75;95483.29;108274;1292;22425;-89
2024/02/26 09:04:50;;;;;;;;;;;;;;;10.28;87.75;95480.20;108283;1292;22432;-88
2024/02/26 09:07:17;;;;;;;;;;;;;;;10.35;86.51;95484.98;108217;1287;22476;-88
2024/02/26 09:09:43;;;;;;;;;;;;;;;10.42;86.28;95490.17;108236;1296;22436;-89
2024/02/26 09:12:10;;;;;;;;;;;;;;;10.50;85.99;95484.52;108289;1300;22450;-89
2024/02/26 09:14:36;;;;;;;;;;;;;;;10.60;85.57;95488.26;108140;1292;22471;-89
2024/02/26 09:17:03;;;;;;;;;;;;;;;10.68;85.10;95483.00;108307;1295;22431;-89
2024/02/26 09:19:29;;;;;;;;;;;;;;;10.76;86.69;95479.30;107374;1300;22534;-87
2024/02/26 09:21:58;;;;;;;;;;;;;;;10.88;86.66;95478.39;106757;1292;22537;-88
2024/02/26 09:24:24;;;;;;;;;;;;;;;10.98;86.00;95480.78;107095;1294;22537;-88
2024/02/26 09:26:51;;;;;;;;;;;;;;;11.02;85.58;95474.61;107162;1285;24426;-88
2024/02/26 09:29:17;;;;;;;;;;;;;;;11.03;84.94;95479.23;107114;1300;22557;-88
2024/02/26 09:31:47;;;;;;;;;;;;;;;11.10;85.12;95477.52;106925;1300;23811;-88
2024/02/26 09:34:13;;;;;;;;;;;;;;;11.17;85.25;95469.99;107234;1292;22522;-88
2024/02/26 09:36:40;;;;;;;;;;;;;;;11.21;85.46;95480.48;107004;1300;22566;-88
2024/02/26 09:39:11;;;;;;;;;;;;;;;11.24;84.26;95473.65;107105;1300;23627;-88
2024/02/26 09:41:38;;;;;;;;;;;;;;;11.31;84.21;95464.16;106982;1294;22603;-88
2024/02/26 09:44:04;;;;;;;;;;;;;;;11.36;83.10;95474.48;107042;1294;22528;-88
2024/02/26 09:46:31;;;;;;;;;;;;;;;11.34;83.49;95465.14;107102;1295;22552;-87
2024/02/26 09:48:57;;;;;;;;;;;;;;;11.36;84.04;95459.69;106789;1292;22701;-88
2024/02/26 09:51:24;;;;;;;;;;;;;;;11.41;84.12;95468.52;107157;1298;22499;-88
2024/02/26 09:53:51;;;;;;;;;;;;;;;11.42;83.80;95478.63;106912;1294;22577;-88
2024/02/26 09:56:18;;;;;;;;;;;;;;;11.40;83.54;95476.09;106995;1300;22539;-88
2024/02/26 09:58:47;;;;;;;;;;;;;;;11.42;83.32;95472.27;106857;1292;22569;-88
2024/02/26 10:01:14;;;;;;;;;;;;;;;11.46;83.39;95473.17;106965;1292;24385;-89
2024/02/26 10:03:41;;;;;;;;;;;;;;;11.50;82.14;95474.61;107000;1300;22679;-88
2024/02/26 10:06:08;;;;;;;;;;;;;;;11.54;83.17;95470.46;106948;1291;22627;-88
2024/02/26 10:08:35;;;;;;;;;;;;;;;11.58;83.20;95464.17;107079;1295;22563;-88
2024/02/26 10:11:01;;;;;;;;;;;;;;;11.63;82.99;95462.86;106881;1300;23338;-89
2024/02/26 10:13:27;;;;;;;;;;;;;;;11.70;82.51;95466.80;107092;1300;23764;-88
2024/02/26 10:15:54;;;;;;;;;;;;;;;11.74;81.65;95459.91;106851;1300;22531;-88
2024/02/26 10:18:22;;;;;;;;;;;;;;;11.80;83.30;95456.71;106942;1296;22684;-88
2024/02/26 10:20:58;;;;;;;;;;;;;;;11.88;82.65;95455.54;106827;1300;22527;-88
2024/02/26 10:23:25;;;;;;;;;;;;;;;11.94;82.78;95456.63;107081;1300;25987;-88
2024/02/26 10:25:53;;;;;;;;;;;;;;;12.01;82.17;95456.27;106994;1294;22684;-86
2024/02/26 10:28:19;;;;;;;;;;;;;;;12.07;81.92;95458.84;106891;1292;22547;-88
2024/02/26 10:30:46;;;;;;;;;;;;;;;12.10;81.70;95466.66;106930;1291;22560;-89
2024/02/26 10:33:15;;;;;;;;;;;;;;;12.15;82.12;95458.98;106968;1301;22559;-88
2024/02/26 10:35:47;;;;;;;;;;;;;;;12.19;81.57;95470.55;107010;1294;22537;-88
2024/02/26 10:38:13;;;;;;;;;;;;;;;12.24;79.96;95473.96;107014;1300;22562;-88
2024/02/26 10:40:40;;;;;;;;;;;;;;;12.25;80.23;95476.44;106991;1300;22611;-89
2024/02/26 10:43:06;;;;;;;;;;;;;;;12.26;80.55;95482.00;106898;1300;25255;-88
2024/02/26 10:45:32;;;;;;;;;;;;;;;12.27;79.33;95471.17;106902;1300;22524;-88
2024/02/26 10:48:00;;;;;;;;;;;;;;;12.28;80.22;95473.96;107040;1300;22562;-88
2024/02/26 10:50:26;;;;;;;;;;;;;;;12.32;80.58;95479.09;106870;1300;22534;-89
2024/02/26 10:52:53;;;;;;;;;;;;;;;12.35;80.09;95478.98;107019;1300;24212;-88
2024/02/26 10:55:19;;;;;;;;;;;;;;;12.38;79.66;95476.77;107009;1295;25284;-88
2024/02/26 10:57:46;;;;;;;;;;;;;;;12.41;79.50;95473.02;106968;1300;22630;-88
2024/02/26 11:00:13;;;;;;;;;;;;;;;12.44;79.20;95472.73;107050;1295;22545;-88
2024/02/26 11:02:40;;;;;;;;;;;;;;;12.46;79.21;95470.14;107058;1294;22552;-88
2024/02/26 11:05:06;;;;;;;;;;;;;;;12.50;79.33;95471.02;106734;1300;22632;-88
2024/02/26 11:07:34;;;;;;;;;;;;;;;12.52;78.95;95468.57;106935;1292;22539;-87
2024/02/26 11:10:00;;;;;;;;;;;;;;;12.55;79.17;95467.86;107019;1295;23158;-88
2024/02/26 11:12:31;;;;;;;;;;;;;;;12.57;78.81;95465.00;106829;1301;22501;-88
2024/02/26 11:14:58;;;;;;;;;;;;;;;12.58;78.45;95461.49;106852;1295;22557;-88
2024/02/26 11:17:25;;;;;;;;;;;;;;;12.61;78.31;95464.59;106921;1301;22533;-89
2024/02/26 11:19:54;;;;;;;;;;;;;;;12.64;78.58;95468.00;106751;1300;24338;-88
2024/02/26 11:22:21;;;;;;;;;;;;;;;12.67;79.74;95463.64;106957;1295;22564;-89
2024/02/26 11:24:48;;;;;;;;;;;;;;;12.67;80.34;95466.36;107065;1294;22535;-88
2024/02/26 11:27:15;;;;;;;;;;;;;;;12.64;80.66;95463.58;106997;1297;22548;-88
2024/02/26 11:29:43;;;;;;;;;;;;;;;12.60;79.59;95467.45;106871;1301;22539;-87
2024/02/26 11:32:10;;;;;;;;;;;;;;;12.57;80.85;95468.13;107059;1298;22585;-88
2024/02/26 11:34:36;;;;;;;;;;;;;;;12.51;80.07;95470.81;106824;1301;22652;-88
2024/02/26 11:37:13;;;;;;;;;;;;;;;12.49;80.63;95474.60;106857;1301;22537;-87
2024/02/26 11:39:42;;;;;;;;;;;;;;;12.47;81.27;95468.77;107144;1300;25431;-88
2024/02/26 11:42:08;;;;;;;;;;;;;;;12.44;80.89;95478.15;107065;1298;22576;-89
2024/02/26 11:44:36;;;;;;;;;;;;;;;12.41;80.24;95471.41;107209;1300;22587;-88
2024/02/26 11:47:22;;;;;;;;;;;;;;;12.40;79.76;95472.67;107027;1298;23154;-89
2024/02/26 11:49:49;;;;;;;;;;;;;;;12.41;80.46;95473.17;107148;1300;23253;-88
2024/02/26 11:52:16;;;;;;;;;;;;;;;12.40;80.12;95472.73;106961;1300;23293;-88
2024/02/26 11:54:49;;;;;;;;;;;;;;;12.38;79.76;95470.12;106900;1292;22562;-89
2024/02/26 11:57:28;;;;;;;;;;;;;;;12.39;79.44;95481.45;106907;1298;22593;-88
2024/02/26 11:59:55;;;;;;;;;;;;;;;12.40;79.09;95477.71;107037;1295;22554;-88
2024/02/26 12:02:40;;;;;;;;;;;;;;;12.41;79.33;95474.42;106961;1298;22574;-88
2024/02/26 12:05:17;;;;;;;;;;;;;;;12.43;78.78;95474.83;107155;1293;22561;-89
2024/02/26 12:07:50;;;;;;;;;;;;;;;12.45;78.37;95473.53;106940;1294;22528;-88
2024/02/26 12:10:25;;;;;;;;;;;;;;;12.47;78.37;95474.83;108436;1288;22417;-89
2024/02/26 12:12:59;;;;;;;;;;;;;;;12.48;77.88;95469.36;108388;1295;23152;-89
2024/02/26 12:15:30;;;;;;;;;;;;;;;12.49;77.74;95475.00;108413;1292;23587;-89
2024/02/26 12:17:56;;;;;;;;;;;;;;;12.50;77.81;95473.23;107912;1292;22501;-88
2024/02/26 12:20:23;;;;;;;;;;;;;;;12.52;77.65;95471.05;106932;1294;22534;-88
2024/02/26 12:22:49;;;;;;;;;;;;;;;12.55;78.09;95468.75;107080;1295;22541;-89
2024/02/26 12:25:16;;;;;;;;;;;;;;;12.57;77.66;95471.61;107128;1295;22534;-88
2024/02/26 12:27:42;;;;;;;;;;;;;;;12.57;77.59;95466.03;106993;1300;23886;-89
2024/02/26 12:30:09;;;;;;;;;;;;;;;12.58;77.42;95463.05;106961;1291;25397;-88
2024/02/26 12:32:36;;;;;;;;;;;;;;;12.58;77.76;95470.52;107134;1292;22569;-89
2024/02/26 12:35:13;;;;;;;;;;;;;;;12.59;77.91;95473.19;107088;1300;22579;-88
2024/02/26 12:37:40;;;;;;;;;;;;;;;12.60;78.18;95472.86;106992;1292;22527;-89
2024/02/26 12:40:08;;;;;;;;;;;;;;;12.62;78.25;95477.08;106934;1295;22551;-89
2024/02/26 12:42:39;;;;;;;;;;;;;;;12.63;77.64;95483.25;107063;1295;22530;-88